createdAt,value
2023-06-28T00:01:17.632Z,20.80
2023-06-28T00:03:45.778Z,20.80
2023-06-28T00:06:12.565Z,20.80
2023-06-28T00:08:39.307Z,20.80
2023-06-28T00:11:06.067Z,20.80
2023-06-28T00:13:32.806Z,20.70
2023-06-28T00:15:59.721Z,20.70
2023-06-28T00:18:26.525Z,20.70
2023-06-28T00:20:54.592Z,20.60
2023-06-28T00:23:21.357Z,20.50
2023-06-28T00:25:48.085Z,20.50
2023-06-28T00:28:14.858Z,20.50
2023-06-28T00:30:41.814Z,20.40
2023-06-28T00:33:08.833Z,20.50
2023-06-28T00:35:35.602Z,20.60
2023-06-28T00:38:03.693Z,20.50
2023-06-28T00:40:30.435Z,20.40
2023-06-28T00:42:57.181Z,20.30
2023-06-28T00:45:23.958Z,20.30
2023-06-28T00:47:51.039Z,20.40
2023-06-28T00:50:19.291Z,20.50
2023-06-28T00:52:46.046Z,20.30
2023-06-28T00:55:14.393Z,20.40
2023-06-28T00:57:41.264Z,20.20
2023-06-28T01:00:08.900Z,20.10
2023-06-28T01:02:35.817Z,20.20
2023-06-28T01:05:02.716Z,20.10
2023-06-28T01:07:30.565Z,20.30
2023-06-28T01:09:58.810Z,20.20
2023-06-28T01:12:27.191Z,20.20
2023-06-28T01:14:54.013Z,20.20
2023-06-28T01:17:20.975Z,19.90
2023-06-28T01:19:47.894Z,19.90
2023-06-28T01:22:15.064Z,19.60
2023-06-28T01:24:43.453Z,19.50
2023-06-28T01:27:11.759Z,19.50
2023-06-28T01:29:40.349Z,19.70
2023-06-28T01:32:08.060Z,19.80
2023-06-28T01:34:34.802Z,19.90
2023-06-28T01:37:03.366Z,19.90
2023-06-28T01:39:31.987Z,19.80
2023-06-28T01:42:01.065Z,19.90
2023-06-28T01:44:28.291Z,19.70
2023-06-28T01:46:55.369Z,19.80
2023-06-28T01:49:22.470Z,19.70
2023-06-28T01:51:49.404Z,19.60
2023-06-28T01:54:16.262Z,19.70
2023-06-28T01:56:43.113Z,19.70
2023-06-28T01:59:11.319Z,19.80
2023-06-28T02:01:38.513Z,19.90
2023-06-28T02:04:05.438Z,19.90
2023-06-28T02:06:32.367Z,19.90
2023-06-28T02:08:59.168Z,20.00
2023-06-28T02:11:25.976Z,20.00
2023-06-28T02:13:52.876Z,19.90
2023-06-28T02:16:21.064Z,19.90
2023-06-28T02:18:47.801Z,19.90
2023-06-28T02:21:14.543Z,19.90
2023-06-28T02:23:41.272Z,19.90
2023-06-28T02:26:08.211Z,19.90
2023-06-28T02:28:34.955Z,19.90
2023-06-28T02:31:01.746Z,19.70
2023-06-28T02:33:29.823Z,19.70
2023-06-28T02:35:56.528Z,19.70
2023-06-28T02:38:23.327Z,19.80
2023-06-28T02:40:50.048Z,19.80
2023-06-28T02:43:16.782Z,19.60
2023-06-28T02:45:43.658Z,19.60
2023-06-28T02:48:10.425Z,19.60
2023-06-28T02:50:38.560Z,19.70
2023-06-28T02:53:05.309Z,19.70
2023-06-28T02:55:32.070Z,19.70
2023-06-28T02:57:58.847Z,19.70
2023-06-28T03:00:25.573Z,19.70
2023-06-28T03:02:52.399Z,19.60
2023-06-28T03:05:19.167Z,19.60
2023-06-28T03:07:47.229Z,19.60
2023-06-28T03:10:13.968Z,19.60
2023-06-28T03:12:40.682Z,19.60
2023-06-28T03:15:08.442Z,19.60
2023-06-28T03:17:35.226Z,19.50
2023-06-28T03:20:02.085Z,19.50
2023-06-28T03:22:28.837Z,19.50
2023-06-28T03:24:56.884Z,19.50
2023-06-28T03:27:23.638Z,19.50
2023-06-28T03:29:50.373Z,19.40
2023-06-28T03:32:17.175Z,19.40
2023-06-28T03:34:44.083Z,19.40
2023-06-28T03:37:10.797Z,19.40
2023-06-28T03:39:37.561Z,19.40
2023-06-28T03:42:06.316Z,19.40
2023-06-28T03:44:33.041Z,19.40
2023-06-28T03:46:59.783Z,19.40
2023-06-28T03:49:26.661Z,19.40
2023-06-28T03:51:53.389Z,19.40
2023-06-28T03:54:21.862Z,19.40
2023-06-28T03:56:49.083Z,19.40
2023-06-28T03:59:17.159Z,19.40
2023-06-28T04:01:46.364Z,19.30
2023-06-28T04:04:14.819Z,19.30
2023-06-28T04:06:41.609Z,19.30
2023-06-28T04:09:08.442Z,19.30
2023-06-28T04:11:35.187Z,19.30
2023-06-28T04:14:01.908Z,19.30
2023-06-28T04:16:29.983Z,19.30
2023-06-28T04:18:56.755Z,19.30
2023-06-28T04:21:23.480Z,19.30
2023-06-28T04:23:50.225Z,19.30
2023-06-28T04:26:16.981Z,19.30
2023-06-28T04:28:43.752Z,19.20
2023-06-28T04:31:10.568Z,19.30
2023-06-28T04:33:38.714Z,19.30
2023-06-28T04:36:05.809Z,19.20
2023-06-28T04:38:32.527Z,19.20
2023-06-28T04:40:59.464Z,19.20
2023-06-28T04:43:26.293Z,19.20
2023-06-28T04:45:53.076Z,19.20
2023-06-28T04:48:19.806Z,19.20
2023-06-28T04:50:48.059Z,19.20
2023-06-28T04:53:14.841Z,19.20
2023-06-28T04:55:41.736Z,19.20
2023-06-28T04:58:08.543Z,19.10
2023-06-28T05:00:35.289Z,19.10
2023-06-28T05:03:02.385Z,19.10
2023-06-28T05:05:29.526Z,19.20
2023-06-28T05:07:57.764Z,19.20
2023-06-28T05:10:25.178Z,19.20
2023-06-28T05:12:52.418Z,19.20
2023-06-28T05:15:19.371Z,19.10
2023-06-28T05:17:46.222Z,19.10
2023-06-28T05:20:15.135Z,19.10
2023-06-28T05:22:44.385Z,19.10
2023-06-28T05:25:12.687Z,19.10
2023-06-28T05:27:39.449Z,19.10
2023-06-28T05:30:07.584Z,19.10
2023-06-28T05:32:34.372Z,19.10
2023-06-28T05:35:01.230Z,19.10
2023-06-28T05:37:28.005Z,19.10
2023-06-28T05:39:54.795Z,19.10
2023-06-28T05:42:22.922Z,19.10
2023-06-28T05:44:49.723Z,19.20
2023-06-28T05:47:16.502Z,19.10
2023-06-28T05:49:44.300Z,19.20
2023-06-28T05:52:13.041Z,19.20
2023-06-28T05:54:40.344Z,19.20
2023-06-28T05:57:07.337Z,19.20
2023-06-28T05:59:35.801Z,19.20
2023-06-28T06:02:02.828Z,19.20
2023-06-28T06:04:29.656Z,19.20
2023-06-28T06:06:56.507Z,19.20
2023-06-28T06:09:23.317Z,19.20
2023-06-28T06:11:50.120Z,19.20
2023-06-28T06:14:16.941Z,19.20
2023-06-28T06:16:45.083Z,19.20
2023-06-28T06:19:13.477Z,19.20
2023-06-28T06:21:41.804Z,19.20
2023-06-28T06:24:08.623Z,19.20
2023-06-28T06:26:35.482Z,19.20
2023-06-28T06:29:02.628Z,19.30
2023-06-28T06:31:29.932Z,19.20
2023-06-28T06:33:58.181Z,19.20
2023-06-28T06:36:25.004Z,19.20
2023-06-28T06:38:51.778Z,19.30
2023-06-28T06:41:18.553Z,19.30
2023-06-28T06:43:45.325Z,19.30
2023-06-28T06:46:12.081Z,19.40
2023-06-28T06:48:38.859Z,19.30
2023-06-28T06:51:07.056Z,19.30
2023-06-28T06:53:33.887Z,19.20
2023-06-28T06:56:00.668Z,19.30
2023-06-28T06:58:27.410Z,19.30
2023-06-28T07:00:54.200Z,19.40
2023-06-28T07:03:20.993Z,19.40
2023-06-28T07:05:47.965Z,19.30
2023-06-28T07:08:16.186Z,19.40
2023-06-28T07:10:42.964Z,19.30
2023-06-28T07:13:10.874Z,19.30
2023-06-28T07:15:37.819Z,19.30
2023-06-28T07:18:05.013Z,19.30
2023-06-28T07:20:31.828Z,19.30
2023-06-28T07:22:58.545Z,19.30
2023-06-28T07:25:26.602Z,19.30
2023-06-28T07:27:53.332Z,19.40
2023-06-28T07:30:20.076Z,19.40
2023-06-28T07:32:46.943Z,19.40
2023-06-28T07:35:13.792Z,19.40
2023-06-28T07:37:40.602Z,19.40
2023-06-28T07:40:08.501Z,19.40
2023-06-28T07:42:36.596Z,19.40
2023-06-28T07:45:03.704Z,19.40
2023-06-28T07:47:30.524Z,19.40
2023-06-28T07:49:57.302Z,19.40
2023-06-28T07:52:24.201Z,19.40
2023-06-28T07:54:50.996Z,19.40
2023-06-28T07:57:17.793Z,19.40
2023-06-28T07:59:45.926Z,19.40
2023-06-28T08:02:12.731Z,19.50
2023-06-28T08:04:40.808Z,19.50
2023-06-28T08:07:07.589Z,19.50
2023-06-28T08:09:34.393Z,19.50
2023-06-28T08:12:01.165Z,19.60
2023-06-28T08:14:27.941Z,19.60
2023-06-28T08:16:56.088Z,19.60
2023-06-28T08:19:22.884Z,19.60
2023-06-28T08:21:49.754Z,19.70
2023-06-28T08:24:16.530Z,19.70
2023-06-28T08:26:43.637Z,19.70
2023-06-28T08:29:10.443Z,19.70
2023-06-28T08:31:37.222Z,19.80
2023-06-28T08:34:05.340Z,19.80
2023-06-28T08:36:33.125Z,19.80
2023-06-28T08:38:59.894Z,19.90
2023-06-28T08:41:27.178Z,19.80
2023-06-28T08:43:55.153Z,19.90
2023-06-28T08:46:23.285Z,19.90
2023-06-28T08:48:51.027Z,20.00
2023-06-28T08:51:19.559Z,20.00
2023-06-28T08:53:49.123Z,20.00
2023-06-28T08:56:16.063Z,20.00
2023-06-28T08:58:42.942Z,20.00
2023-06-28T09:01:09.761Z,20.10
2023-06-28T09:03:41.378Z,20.10
2023-06-28T09:06:08.797Z,20.10
2023-06-28T09:08:36.989Z,20.20
2023-06-28T09:11:04.115Z,20.20
2023-06-28T09:13:31.284Z,20.20
2023-06-28T09:15:58.098Z,20.20
2023-06-28T09:18:24.931Z,20.20
2023-06-28T09:20:53.126Z,20.30
2023-06-28T09:23:27.787Z,20.30
2023-06-28T09:25:56.137Z,20.30
2023-06-28T09:28:24.580Z,20.30
2023-06-28T09:30:54.812Z,20.30
2023-06-28T09:33:22.119Z,20.40
2023-06-28T09:35:53.149Z,20.40
2023-06-28T09:38:20.368Z,20.40
2023-06-28T09:40:55.469Z,20.40
2023-06-28T09:43:22.644Z,20.40
2023-06-28T09:45:49.589Z,20.40
2023-06-28T09:48:16.540Z,20.40
2023-06-28T09:50:44.535Z,20.40
2023-06-28T09:53:12.439Z,20.40
2023-06-28T09:55:40.353Z,20.50
2023-06-28T09:58:10.510Z,20.50
2023-06-28T10:00:38.296Z,20.50
2023-06-28T10:03:07.806Z,20.50
2023-06-28T10:05:36.678Z,20.50
2023-06-28T10:08:04.774Z,20.50
2023-06-28T10:10:34.552Z,20.60
2023-06-28T10:13:02.723Z,20.60
2023-06-28T10:15:37.496Z,20.60
2023-06-28T10:18:05.181Z,20.60
2023-06-28T10:20:32.181Z,20.60
2023-06-28T10:22:59.865Z,20.70
2023-06-28T10:25:27.450Z,20.70
2023-06-28T10:27:55.114Z,20.70
2023-06-28T10:30:22.525Z,20.70
2023-06-28T10:32:52.039Z,20.70
2023-06-28T10:35:19.457Z,20.70
2023-06-28T10:37:49.134Z,20.70
2023-06-28T10:40:17.394Z,20.70
2023-06-28T10:42:44.993Z,20.70
2023-06-28T10:45:11.892Z,20.80
2023-06-28T10:47:55.002Z,20.80
2023-06-28T10:50:23.066Z,20.80
2023-06-28T10:52:52.578Z,20.80
2023-06-28T10:55:21.350Z,20.90
2023-06-28T10:58:04.450Z,20.90
2023-06-28T11:00:46.138Z,20.90
2023-06-28T11:03:14.527Z,20.90
2023-06-28T11:05:52.456Z,21.00
2023-06-28T11:08:19.718Z,21.00
2023-06-28T11:10:48.014Z,21.00
2023-06-28T11:13:16.413Z,21.10
2023-06-28T11:15:44.236Z,21.10
2023-06-28T11:18:16.808Z,21.10
2023-06-28T11:20:51.737Z,21.10
2023-06-28T11:23:36.292Z,21.10
2023-06-28T11:26:04.074Z,21.20
2023-06-28T11:28:32.909Z,21.20
2023-06-28T11:31:13.957Z,21.20
2023-06-28T11:33:43.206Z,21.20
2023-06-28T11:36:11.188Z,21.20
2023-06-28T11:38:38.692Z,21.30
2023-06-28T11:41:06.080Z,21.30
2023-06-28T11:43:32.909Z,21.30
2023-06-28T11:45:59.907Z,21.30
2023-06-28T11:48:27.901Z,21.30
2023-06-28T11:50:59.744Z,21.30
2023-06-28T11:53:27.657Z,21.30
2023-06-28T11:55:54.696Z,21.30
2023-06-28T11:58:31.855Z,21.40
2023-06-28T12:00:58.985Z,21.40
2023-06-28T12:03:37.286Z,21.40
2023-06-28T12:06:07.664Z,21.40
2023-06-28T12:08:35.734Z,21.50
2023-06-28T12:11:08.720Z,21.50
2023-06-28T12:13:35.531Z,21.50
2023-06-28T12:16:12.001Z,21.50
2023-06-28T12:18:58.675Z,21.50
2023-06-28T12:21:28.122Z,21.50
2023-06-28T12:24:10.825Z,21.60
2023-06-28T12:26:37.945Z,21.60
2023-06-28T12:29:06.365Z,21.50
2023-06-28T12:31:40.905Z,21.60
2023-06-28T12:34:07.667Z,21.60
2023-06-28T12:36:35.845Z,21.60
2023-06-28T12:39:02.604Z,21.60
2023-06-28T12:41:29.342Z,21.60
2023-06-28T12:43:56.978Z,21.60
2023-06-28T12:46:23.776Z,21.70
2023-06-28T12:48:52.719Z,21.70
2023-06-28T12:51:19.462Z,21.70
2023-06-28T12:53:47.537Z,21.70
2023-06-28T12:56:14.302Z,21.70
2023-06-28T12:58:41.085Z,21.70
2023-06-28T13:01:07.974Z,21.70
2023-06-28T13:03:34.752Z,21.70
2023-06-28T13:06:02.151Z,21.80
2023-06-28T13:08:28.890Z,21.80
2023-06-28T13:10:57.027Z,21.80
2023-06-28T13:13:23.781Z,21.80
2023-06-28T13:15:50.527Z,21.80
2023-06-28T13:18:17.299Z,21.80
2023-06-28T13:20:44.173Z,21.80
2023-06-28T13:23:10.981Z,21.80
2023-06-28T13:25:37.792Z,21.90
2023-06-28T13:28:06.111Z,21.90
2023-06-28T13:30:34.517Z,21.90
2023-06-28T13:33:01.507Z,21.90
2023-06-28T13:35:28.287Z,21.90
2023-06-28T13:37:55.048Z,21.90
2023-06-28T13:40:21.969Z,21.90
2023-06-28T13:42:48.738Z,22.00
2023-06-28T13:45:16.919Z,22.00
2023-06-28T13:47:43.680Z,22.00
2023-06-28T13:50:10.985Z,22.00
2023-06-28T13:52:37.763Z,22.00
2023-06-28T13:55:05.454Z,22.10
2023-06-28T13:57:32.609Z,22.20
2023-06-28T13:59:59.508Z,22.10
2023-06-28T14:02:27.830Z,22.10
2023-06-28T14:04:54.779Z,22.10
2023-06-28T14:07:21.709Z,22.10
2023-06-28T14:09:48.686Z,22.10
2023-06-28T14:12:15.516Z,22.10
2023-06-28T14:14:42.753Z,22.10
2023-06-28T14:17:10.711Z,22.10
2023-06-28T14:19:38.776Z,22.10
2023-06-28T14:22:05.864Z,22.10
2023-06-28T14:24:32.632Z,22.10
2023-06-28T14:26:59.497Z,22.00
2023-06-28T14:29:26.315Z,22.00
2023-06-28T14:31:53.116Z,22.00
2023-06-28T14:34:19.903Z,22.10
2023-06-28T14:36:48.358Z,22.10
2023-06-28T14:39:15.260Z,22.10
2023-06-28T14:41:42.126Z,22.10
2023-06-28T14:44:08.891Z,22.10
2023-06-28T14:46:35.748Z,22.10
2023-06-28T14:49:03.292Z,22.20
2023-06-28T14:51:30.309Z,22.20
2023-06-28T14:54:00.460Z,22.20
2023-06-28T14:56:28.091Z,22.30
2023-06-28T14:58:55.401Z,22.30
2023-06-28T15:01:22.250Z,22.30
2023-06-28T15:03:49.107Z,22.40
2023-06-28T15:06:16.049Z,22.40
2023-06-28T15:08:42.886Z,22.40
2023-06-28T15:11:11.007Z,22.40
2023-06-28T15:13:37.805Z,22.50
2023-06-28T15:16:05.230Z,22.50
2023-06-28T15:18:32.136Z,22.50
2023-06-28T15:20:58.899Z,22.50
2023-06-28T15:23:25.703Z,22.60
2023-06-28T15:25:52.545Z,22.60
2023-06-28T15:28:20.858Z,22.60
2023-06-28T15:30:47.634Z,22.60
2023-06-28T15:33:14.613Z,22.60
2023-06-28T15:35:42.056Z,22.60
2023-06-28T15:38:09.116Z,22.70
2023-06-28T15:40:36.005Z,22.70
2023-06-28T15:43:07.935Z,22.70
2023-06-28T15:45:36.080Z,22.70
2023-06-28T15:48:02.975Z,22.80
2023-06-28T15:50:29.771Z,22.80
2023-06-28T15:52:56.532Z,22.80
2023-06-28T15:55:24.305Z,22.80
2023-06-28T15:57:51.199Z,22.80
2023-06-28T16:00:18.330Z,22.80
2023-06-28T16:02:46.589Z,22.70
2023-06-28T16:05:13.489Z,22.70
2023-06-28T16:07:40.272Z,22.70
2023-06-28T16:10:07.848Z,22.70
2023-06-28T16:12:34.655Z,22.70
2023-06-28T16:15:01.463Z,22.70
2023-06-28T16:17:28.280Z,22.70
2023-06-28T16:19:56.484Z,22.70
2023-06-28T16:22:23.315Z,22.60
2023-06-28T16:24:50.129Z,22.60
2023-06-28T16:27:19.927Z,22.60
2023-06-28T16:29:46.702Z,22.60
2023-06-28T16:32:13.618Z,22.60
2023-06-28T16:34:41.052Z,22.60
2023-06-28T16:37:09.187Z,22.60
2023-06-28T16:39:36.424Z,22.60
2023-06-28T16:42:03.827Z,22.60
2023-06-28T16:44:30.585Z,22.50
2023-06-28T16:46:57.406Z,22.50
2023-06-28T16:49:24.172Z,22.50
2023-06-28T16:51:50.963Z,22.50
2023-06-28T16:54:19.057Z,22.50
2023-06-28T16:56:45.813Z,22.50
2023-06-28T16:59:12.571Z,22.50
2023-06-28T17:01:39.371Z,22.50
2023-06-28T17:04:06.129Z,22.50
2023-06-28T17:06:32.873Z,22.50
2023-06-28T17:08:59.656Z,22.50
2023-06-28T17:11:27.749Z,22.50
2023-06-28T17:13:54.537Z,22.50
2023-06-28T17:16:21.692Z,22.50
2023-06-28T17:18:48.487Z,22.50
2023-06-28T17:21:15.249Z,22.50
2023-06-28T17:23:42.071Z,22.50
2023-06-28T17:26:08.825Z,22.50
2023-06-28T17:28:36.879Z,22.50
2023-06-28T17:31:03.663Z,22.50
2023-06-28T17:33:30.364Z,22.50
2023-06-28T17:35:57.109Z,22.50
2023-06-28T17:38:23.879Z,22.60
2023-06-28T17:40:50.608Z,22.70
2023-06-28T17:43:17.371Z,22.70
2023-06-28T17:45:45.498Z,22.60
2023-06-28T17:48:12.286Z,22.60
2023-06-28T17:50:39.116Z,22.50
2023-06-28T17:53:05.879Z,22.50
2023-06-28T17:55:32.639Z,22.50
2023-06-28T17:57:59.386Z,22.50
2023-06-28T18:00:26.141Z,22.50
2023-06-28T18:02:54.211Z,22.50
2023-06-28T18:05:20.978Z,22.40
2023-06-28T18:07:47.781Z,22.40
2023-06-28T18:10:14.549Z,22.40
2023-06-28T18:12:41.549Z,22.40
2023-06-28T18:15:09.809Z,22.40
2023-06-28T18:17:36.643Z,22.40
2023-06-28T18:20:05.564Z,22.40
2023-06-28T18:22:32.314Z,22.40
2023-06-28T18:24:59.064Z,22.30
2023-06-28T18:27:25.801Z,22.30
2023-06-28T18:29:52.566Z,22.30
2023-06-28T18:32:19.304Z,22.30
2023-06-28T18:34:46.059Z,22.30
2023-06-28T18:37:14.230Z,22.30
2023-06-28T18:39:41.010Z,22.30
2023-06-28T18:42:08.754Z,22.30
2023-06-28T18:44:35.545Z,22.20
2023-06-28T18:47:02.328Z,22.20
2023-06-28T18:49:29.102Z,22.20
2023-06-28T18:51:55.878Z,22.20
2023-06-28T18:54:23.996Z,22.20
2023-06-28T18:56:50.767Z,22.20
2023-06-28T18:59:17.550Z,22.20
2023-06-28T19:01:44.365Z,22.20
2023-06-28T19:04:11.243Z,22.20
2023-06-28T19:06:38.042Z,22.10
2023-06-28T19:09:04.823Z,22.10
2023-06-28T19:11:32.968Z,22.10
2023-06-28T19:13:59.721Z,22.10
2023-06-28T19:16:26.525Z,22.10
2023-06-28T19:18:53.319Z,22.00
2023-06-28T19:21:20.102Z,22.00
2023-06-28T19:23:46.878Z,22.00
2023-06-28T19:26:13.659Z,22.00
2023-06-28T19:28:41.787Z,21.90
2023-06-28T19:31:08.625Z,21.90
2023-06-28T19:33:35.438Z,21.90
2023-06-28T19:36:02.218Z,21.90
2023-06-28T19:38:29.061Z,21.90
2023-06-28T19:40:55.853Z,21.90
2023-06-28T19:43:22.608Z,21.80
2023-06-28T19:45:50.729Z,21.80
2023-06-28T19:48:17.574Z,21.80
2023-06-28T19:50:44.648Z,21.70
2023-06-28T19:53:11.860Z,21.70
2023-06-28T19:55:38.643Z,21.70
2023-06-28T19:58:05.432Z,21.70
2023-06-28T20:00:32.175Z,21.60
2023-06-28T20:03:00.325Z,21.60
2023-06-28T20:05:27.109Z,21.60
2023-06-28T20:07:55.553Z,21.60
2023-06-28T20:10:23.555Z,21.60
2023-06-28T20:12:50.363Z,21.50
2023-06-28T20:15:17.211Z,21.50
2023-06-28T20:17:44.119Z,21.40
2023-06-28T20:20:13.268Z,21.40
2023-06-28T20:22:40.056Z,21.40
2023-06-28T20:25:07.917Z,21.30
2023-06-28T20:27:34.940Z,21.30
2023-06-28T20:30:02.010Z,21.30
2023-06-28T20:32:28.771Z,21.30
2023-06-28T20:34:55.600Z,21.30
2023-06-28T20:37:24.091Z,21.30
2023-06-28T20:39:50.956Z,21.30
2023-06-28T20:42:17.714Z,21.20
2023-06-28T20:44:44.700Z,21.20
2023-06-28T20:47:11.474Z,21.20
2023-06-28T20:49:38.297Z,21.00
2023-06-28T20:52:05.524Z,21.10
2023-06-28T20:54:33.591Z,21.10
2023-06-28T20:57:00.363Z,21.10
2023-06-28T20:59:27.141Z,21.00
2023-06-28T21:01:54.275Z,21.00
2023-06-28T21:04:21.302Z,21.00
2023-06-28T21:06:48.102Z,21.00
2023-06-28T21:09:14.836Z,21.00
2023-06-28T21:11:42.911Z,21.00
2023-06-28T21:14:09.693Z,20.90
2023-06-28T21:16:36.459Z,20.90
2023-06-28T21:19:03.219Z,20.90
2023-06-28T21:21:30.008Z,20.80
2023-06-28T21:23:56.790Z,20.80
2023-06-28T21:26:23.675Z,20.80
2023-06-28T21:28:51.791Z,20.70
2023-06-28T21:31:21.099Z,20.80
2023-06-28T21:33:48.042Z,20.80
2023-06-28T21:36:14.832Z,20.80
2023-06-28T21:38:41.663Z,20.70
2023-06-28T21:41:08.587Z,20.70
2023-06-28T21:43:36.230Z,20.60
2023-06-28T21:46:04.319Z,20.60
2023-06-28T21:48:31.057Z,20.60
2023-06-28T21:50:57.794Z,20.50
2023-06-28T21:53:24.571Z,20.50
2023-06-28T21:55:51.360Z,20.50
2023-06-28T21:58:18.770Z,20.50
2023-06-28T22:00:45.578Z,20.40
2023-06-28T22:03:13.883Z,20.50
2023-06-28T22:05:40.979Z,20.40
2023-06-28T22:08:07.884Z,20.40
2023-06-28T22:10:34.620Z,20.40
2023-06-28T22:13:01.356Z,20.40
2023-06-28T22:15:28.267Z,20.40
2023-06-28T22:17:55.097Z,20.40
2023-06-28T22:20:23.326Z,20.30
2023-06-28T22:22:50.046Z,20.30
2023-06-28T22:25:16.873Z,20.30
2023-06-28T22:27:43.666Z,20.30
2023-06-28T22:30:11.763Z,20.20
2023-06-28T22:32:42.925Z,20.10
2023-06-28T22:35:10.217Z,20.10
2023-06-28T22:37:38.330Z,20.10
2023-06-28T22:40:06.625Z,20.10
2023-06-28T22:42:33.355Z,20.00
2023-06-28T22:45:00.093Z,19.90
2023-06-28T22:47:26.904Z,19.90
2023-06-28T22:49:53.662Z,19.90
2023-06-28T22:52:20.381Z,19.90
2023-06-28T22:54:48.538Z,19.90
2023-06-28T22:57:15.273Z,19.90
2023-06-28T22:59:42.021Z,19.90
2023-06-28T23:02:08.735Z,19.90
2023-06-28T23:04:35.460Z,19.80
2023-06-28T23:07:02.547Z,19.80
2023-06-28T23:09:29.281Z,19.90
2023-06-28T23:11:57.480Z,19.90
2023-06-28T23:14:24.235Z,19.80
2023-06-28T23:16:50.942Z,19.80
2023-06-28T23:19:18.568Z,19.80
2023-06-28T23:21:45.306Z,19.80
2023-06-28T23:24:12.103Z,19.80
2023-06-28T23:26:39.160Z,19.80
2023-06-28T23:29:07.272Z,19.70
2023-06-28T23:31:34.057Z,19.70
2023-06-28T23:34:00.878Z,19.70
2023-06-28T23:36:27.679Z,19.60
2023-06-28T23:38:54.430Z,19.60
2023-06-28T23:41:21.951Z,19.60
2023-06-28T23:43:48.702Z,19.50
2023-06-28T23:46:17.873Z,19.50
2023-06-28T23:48:44.872Z,19.40
2023-06-28T23:51:12.698Z,19.40
2023-06-28T23:53:40.379Z,19.50
2023-06-28T23:56:07.712Z,19.50
2023-06-28T23:58:35.175Z,19.40
